Time;durP1;ratioP1;P1;durP2;ratioP2;P2;SDS_P1;SDS_P2;PMS_P1;PMS_P2;Temp;Humidity;BMP_temperature;BMP_pressure;BME280_temperature;BME280_humidity;BME280_pressure;Samples;Min_cycle;Max_cycle;Signal;HPM_P1;HPM_P2
2022/10/10 00:02:07;;;;;;;43.88;27.85;;;;;;;14.08;70.56;95975.66;5040411;28;20876;-75
2022/10/10 00:04:33;;;;;;;35.25;28.00;;;;;;;13.84;70.74;95948.88;5040791;28;20453;-75
2022/10/10 00:06:59;;;;;;;38.90;26.70;;;;;;;13.82;70.51;95953.66;5041616;28;20040;-75
2022/10/10 00:09:24;;;;;;;35.40;25.25;;;;;;;14.06;70.80;95994.59;5044024;28;20036;-75
2022/10/10 00:11:49;;;;;;;34.83;23.25;;;;;;;13.76;70.79;95944.09;5042778;28;20741;-75
2022/10/10 00:14:15;;;;;;;29.08;23.08;;;;;;;13.48;70.53;95901.06;5043226;28;20866;-75
2022/10/10 00:16:40;;;;;;;31.45;23.42;;;;;;;14.09;70.38;95998.59;5040872;28;20048;-75
2022/10/10 00:19:06;;;;;;;28.90;22.13;;;;;;;14.08;70.60;95999.66;5043163;28;20036;-75
2022/10/10 00:21:31;;;;;;;30.13;22.35;;;;;;;14.08;70.40;96003.13;5043152;28;20085;-75
2022/10/10 00:23:57;;;;;;;28.48;21.50;;;;;;;14.06;70.28;95983.94;5042445;28;20066;-75
2022/10/10 00:26:22;;;;;;;28.08;21.08;;;;;;;13.93;70.70;95978.41;5042212;28;20047;-75
2022/10/10 00:28:48;;;;;;;32.25;22.17;;;;;;;13.80;70.62;95959.28;5043572;28;20039;-75
2022/10/10 00:31:14;;;;;;;31.88;21.08;;;;;;;13.83;70.64;95987.25;5044718;28;20032;-75
2022/10/10 00:33:39;;;;;;;29.15;21.90;;;;;;;13.30;70.30;95888.34;5052749;28;20565;-75
2022/10/10 00:36:05;;;;;;;38.03;21.65;;;;;;;13.96;70.21;95983.97;5043675;28;20082;-76
2022/10/10 00:38:31;;;;;;;38.33;22.52;;;;;;;13.74;70.23;95954.22;5041587;28;20037;-75
2022/10/10 00:40:57;;;;;;;33.13;22.30;;;;;;;13.30;70.16;95893.69;5042268;28;20067;-75
2022/10/10 00:43:25;;;;;;;37.88;22.02;;;;;;;13.48;70.66;95924.25;5041912;28;20321;-76
2022/10/10 00:45:51;;;;;;;31.55;22.55;;;;;;;13.91;70.17;95987.47;5039704;28;20919;-76
2022/10/10 00:48:24;;;;;;;34.35;22.13;;;;;;;13.21;70.05;95899.84;5042421;28;20108;-75
2022/10/10 00:51:12;;;;;;;28.50;22.00;;;;;;;13.26;69.80;95889.97;5059648;28;20060;-75
2022/10/10 00:54:06;;;;;;;29.73;20.88;;;;;;;13.85;70.06;95999.25;5043289;28;20526;-75
2022/10/10 00:56:38;;;;;;;31.23;21.35;;;;;;;13.24;70.14;95909.97;5040424;28;20071;-75
2022/10/10 00:59:05;;;;;;;31.08;21.05;;;;;;;13.70;70.15;95980.66;5043867;28;20118;-76
2022/10/10 01:01:31;;;;;;;34.58;21.77;;;;;;;13.67;70.40;95981.19;5043397;28;20047;-75
2022/10/10 01:03:59;;;;;;;30.55;21.73;;;;;;;13.70;69.98;96001.19;5042860;28;20036;-75
2022/10/10 01:06:25;;;;;;;30.70;20.15;;;;;;;13.69;70.37;95995.06;5041615;28;20623;-75
2022/10/10 01:08:51;;;;;;;33.38;20.67;;;;;;;13.65;69.85;95999.34;5060774;28;20044;-75
2022/10/10 01:11:37;;;;;;;31.58;22.35;;;;;;;13.48;70.17;95977.56;5060722;28;20483;-75
2022/10/10 01:14:16;;;;;;;31.33;21.23;;;;;;;13.05;70.34;95912.38;5041965;28;20055;-75
2022/10/10 01:16:48;;;;;;;30.42;21.65;;;;;;;13.58;70.16;95995.38;5041835;28;20504;-75
2022/10/10 01:19:23;;;;;;;30.33;21.35;;;;;;;13.52;70.04;95994.56;5060202;28;20041;-75
2022/10/10 01:22:18;;;;;;;30.83;20.38;;;;;;;13.20;70.20;95951.53;5060988;28;20040;-75
2022/10/10 01:24:55;;;;;;;29.60;21.10;;;;;;;13.43;70.63;96004.19;5042386;28;20098;-75
2022/10/10 01:27:30;;;;;;;32.50;21.92;;;;;;;13.44;70.52;96003.94;5041841;28;20036;-75
2022/10/10 01:30:02;;;;;;;29.60;20.38;;;;;;;13.37;70.40;95989.28;5058894;28;20139;-75
2022/10/10 01:32:37;;;;;;;30.65;22.00;;;;;;;13.40;70.75;96007.41;5041362;28;20032;-77
2022/10/10 01:35:20;;;;;;;35.40;21.45;;;;;;;13.11;70.57;95957.38;5040523;28;20031;-77
2022/10/10 01:37:58;;;;;;;27.60;21.27;;;;;;;13.38;70.88;96005.00;5058201;28;20044;-77
2022/10/10 01:40:32;;;;;;;28.13;20.95;;;;;;;12.97;70.57;95932.38;5059823;28;20107;-77
2022/10/10 01:43:01;;;;;;;31.95;21.77;;;;;;;13.07;70.63;95966.97;5041231;28;20923;-76
2022/10/10 01:45:26;;;;;;;29.27;22.40;;;;;;;12.98;70.81;95954.47;5041559;28;20040;-77
2022/10/10 01:47:56;;;;;;;29.02;21.30;;;;;;;13.34;70.66;96005.84;5055791;28;20068;-77
2022/10/10 01:50:25;;;;;;;30.35;22.50;;;;;;;13.03;70.59;95949.94;5054618;28;20094;-77
2022/10/10 01:53:05;;;;;;;31.13;21.42;;;;;;;13.28;70.99;95996.25;5042260;28;20157;-77
2022/10/10 01:55:30;;;;;;;30.85;22.10;;;;;;;13.33;70.75;95997.03;5047460;28;20123;-77
2022/10/10 01:58:28;;;;;;;30.08;20.90;;;;;;;13.19;70.87;95984.56;5041314;28;20516;-77
2022/10/10 02:01:27;;;;;;;36.58;21.98;;;;;;;12.96;71.00;95946.78;5059957;28;20687;-76
2022/10/10 02:04:21;;;;;;;34.83;22.30;;;;;;;13.22;70.70;95987.47;5048639;28;20360;-76
2022/10/10 02:06:56;;;;;;;32.15;22.55;;;;;;;13.26;70.58;95988.53;5060527;28;20039;-76
2022/10/10 02:09:33;;;;;;;33.63;22.92;;;;;;;12.88;70.51;95925.22;5060668;28;20028;-76
2022/10/10 02:12:00;;;;;;;33.15;22.90;;;;;;;13.32;70.67;95992.78;5061003;28;20075;-76
2022/10/10 02:14:41;;;;;;;35.85;23.38;;;;;;;13.32;70.44;96005.31;5041321;28;20032;-76
2022/10/10 02:17:10;;;;;;;39.30;22.27;;;;;;;13.16;70.32;95971.78;5041488;28;20032;-76
2022/10/10 02:19:37;;;;;;;44.90;22.23;;;;;;;13.34;70.43;96009.31;5059462;28;20811;-76
2022/10/10 02:22:05;;;;;;;39.95;24.13;;;;;;;13.33;70.23;96014.91;5043518;28;20122;-76
2022/10/10 02:24:30;;;;;;;38.05;24.15;;;;;;;13.29;70.38;96013.81;5055474;28;20774;-76
2022/10/10 02:27:04;;;;;;;37.05;24.30;;;;;;;12.59;70.00;95903.69;5043094;28;20032;-77
2022/10/10 02:29:34;;;;;;;32.05;22.88;;;;;;;13.07;69.94;95974.94;5042016;28;20035;-77
2022/10/10 02:32:14;;;;;;;35.88;24.65;;;;;;;13.30;70.22;96002.09;5060022;28;20040;-76
2022/10/10 02:34:45;;;;;;;47.03;25.08;;;;;;;13.31;70.09;96001.84;5059751;28;20028;-76
2022/10/10 02:37:14;;;;;;;41.22;24.23;;;;;;;13.31;70.01;96012.50;5059587;28;20086;-76
2022/10/10 02:39:44;;;;;;;36.35;24.73;;;;;;;13.26;70.00;96007.19;5040860;28;20472;-76
2022/10/10 02:42:13;;;;;;;34.72;24.60;;;;;;;12.85;70.15;95949.69;5058244;28;20115;-76
2022/10/10 02:44:40;;;;;;;40.83;24.58;;;;;;;13.15;70.07;96000.28;5059145;28;20037;-76
2022/10/10 02:47:06;;;;;;;39.22;25.40;;;;;;;13.10;70.14;95995.72;5058339;28;20558;-76
2022/10/10 02:49:33;;;;;;;36.90;24.58;;;;;;;13.25;69.99;96018.91;5059919;28;20143;-76
2022/10/10 02:52:00;;;;;;;34.00;24.65;;;;;;;13.01;70.11;95986.69;5060080;28;20074;-77
2022/10/10 02:54:26;;;;;;;32.97;22.92;;;;;;;13.22;70.33;96010.63;5042574;28;20032;-76
2022/10/10 02:56:51;;;;;;;31.67;24.27;;;;;;;13.06;70.37;95992.00;5041215;28;20038;-76
2022/10/10 02:59:17;;;;;;;43.97;25.75;;;;;;;13.04;70.25;96002.13;5040001;28;20047;-77
2022/10/10 03:01:43;;;;;;;42.25;28.45;;;;;;;13.01;70.16;95986.69;5062395;28;20032;-76
2022/10/10 03:04:09;;;;;;;47.42;27.17;;;;;;;13.00;70.06;95974.44;5041713;28;20482;-77
2022/10/10 03:06:34;;;;;;;41.22;27.00;;;;;;;13.04;70.04;95980.84;5063367;28;20032;-76
2022/10/10 03:09:00;;;;;;;44.95;27.00;;;;;;;13.02;69.88;95977.63;5047035;28;20024;-76
2022/10/10 03:11:25;;;;;;;40.75;25.40;;;;;;;13.19;70.13;96019.19;5045631;28;20040;-76
2022/10/10 03:13:51;;;;;;;44.92;27.15;;;;;;;13.20;70.07;96020.78;5063559;28;20037;-76
2022/10/10 03:16:16;;;;;;;40.35;25.27;;;;;;;12.95;70.16;95979.78;5062427;28;20032;-76
2022/10/10 03:18:42;;;;;;;44.28;25.95;;;;;;;13.17;69.83;96022.13;5063713;28;20134;-76
2022/10/10 03:21:07;;;;;;;44.63;25.10;;;;;;;13.14;69.87;96010.13;5063701;28;20043;-77
2022/10/10 03:23:34;;;;;;;41.67;26.08;;;;;;;12.82;70.30;95974.97;5047533;28;20941;-76
2022/10/10 03:26:00;;;;;;;41.92;25.05;;;;;;;12.93;69.96;95999.75;5065048;28;20041;-76
2022/10/10 03:28:25;;;;;;;46.53;26.60;;;;;;;12.86;70.08;95997.34;5046928;28;20028;-76
2022/10/10 03:30:51;;;;;;;41.15;25.77;;;;;;;12.62;70.16;95959.84;5065734;28;20027;-76
2022/10/10 03:33:16;;;;;;;41.90;26.75;;;;;;;13.04;70.39;96034.09;5047971;28;20142;-76
2022/10/10 03:35:42;;;;;;;45.15;25.63;;;;;;;12.81;70.07;95991.25;5065106;28;20042;-76
2022/10/10 03:38:07;;;;;;;49.88;26.27;;;;;;;12.85;69.93;96002.94;5065328;28;20028;-76
2022/10/10 03:40:33;;;;;;;40.67;26.70;;;;;;;12.79;70.08;95996.03;5064916;28;20036;-76
2022/10/10 03:42:59;;;;;;;39.58;26.27;;;;;;;12.82;70.25;95996.28;5046555;28;20121;-76
2022/10/10 03:45:24;;;;;;;48.97;26.83;;;;;;;13.02;70.01;96027.44;5047576;28;20036;-76
2022/10/10 03:47:50;;;;;;;49.80;28.17;;;;;;;13.02;70.29;96032.75;5046857;28;20028;-76
2022/10/10 03:50:16;;;;;;;43.92;27.05;;;;;;;12.98;70.04;96029.81;5064970;28;20059;-76
2022/10/10 03:52:41;;;;;;;41.15;27.48;;;;;;;12.93;69.98;96027.16;5046324;28;20828;-76
2022/10/10 03:55:07;;;;;;;47.55;26.90;;;;;;;12.92;70.06;96030.09;5047457;28;20040;-76
2022/10/10 03:57:32;;;;;;;45.95;27.45;;;;;;;12.70;69.97;96004.53;5046796;28;20209;-76
2022/10/10 03:59:58;;;;;;;51.05;28.45;;;;;;;12.90;70.11;96034.88;5067013;28;20058;-76
2022/10/10 04:02:23;;;;;;;43.70;27.50;;;;;;;12.52;70.08;95973.13;5048274;28;20093;-76
2022/10/10 04:04:49;;;;;;;49.83;26.10;;;;;;;12.56;70.22;95992.03;5062317;28;20391;-76
2022/10/10 04:07:15;;;;;;;51.22;26.35;;;;;;;12.42;70.64;95989.09;5048649;28;20033;-77
2022/10/10 04:09:40;;;;;;;57.65;28.33;;;;;;;12.51;70.18;95994.69;5038316;28;20036;-77
2022/10/10 04:12:06;;;;;;;47.75;26.77;;;;;;;12.29;70.33;95953.16;5042806;28;20047;-76
2022/10/10 04:14:31;;;;;;;41.47;27.55;;;;;;;12.59;70.26;96007.44;5057259;28;20396;-77
2022/10/10 04:16:57;;;;;;;41.50;26.33;;;;;;;12.49;69.92;95991.50;5054979;28;20028;-77
2022/10/10 04:19:22;;;;;;;53.83;27.65;;;;;;;12.45;70.03;95993.88;5054926;28;20089;-77
2022/10/10 04:21:48;;;;;;;50.75;26.23;;;;;;;12.61;70.24;96016.78;5045969;28;20467;-76
2022/10/10 04:24:13;;;;;;;46.60;27.00;;;;;;;12.59;70.08;96026.06;5049343;28;20128;-76
2022/10/10 04:26:38;;;;;;;47.13;26.63;;;;;;;12.35;70.33;95985.91;5019743;28;20754;-76
2022/10/10 04:29:04;;;;;;;45.70;25.23;;;;;;;12.66;70.26;96054.03;5038386;28;20036;-77
2022/10/10 04:31:29;;;;;;;48.30;26.17;;;;;;;12.61;70.14;96048.72;5041557;28;20045;-76
2022/10/10 04:33:55;;;;;;;43.50;26.38;;;;;;;11.73;70.13;95908.94;5031035;28;20036;-76
2022/10/10 04:36:20;;;;;;;46.95;25.98;;;;;;;12.37;70.44;96010.38;5036131;28;20553;-77
2022/10/10 04:38:46;;;;;;;40.63;25.10;;;;;;;12.35;70.29;96009.84;5028842;28;20060;-76
2022/10/10 04:41:11;;;;;;;50.95;26.33;;;;;;;12.54;70.14;96029.53;5037089;28;20621;-76
2022/10/10 04:43:37;;;;;;;51.20;26.45;;;;;;;12.38;70.09;96009.31;5055187;28;20068;-76
2022/10/10 04:46:02;;;;;;;46.70;25.52;;;;;;;12.31;70.14;96001.59;5032940;28;20040;-76
2022/10/10 04:48:28;;;;;;;46.25;27.08;;;;;;;12.62;70.19;96049.50;5034334;28;20559;-76
2022/10/10 04:50:56;;;;;;;43.50;26.90;;;;;;;12.47;70.53;96046.84;5030131;28;20354;-77
2022/10/10 04:53:21;;;;;;;55.88;27.38;;;;;;;12.58;70.37;96051.13;5039968;28;20269;-77
2022/10/10 04:55:46;;;;;;;49.17;28.10;;;;;;;12.05;69.96;95961.94;5033149;28;20028;-77
2022/10/10 04:58:12;;;;;;;44.08;27.35;;;;;;;12.61;70.21;96061.22;5055624;28;20062;-78
2022/10/10 05:00:38;;;;;;;40.58;26.77;;;;;;;12.55;70.39;96047.13;5049528;28;20043;-79
2022/10/10 05:03:04;;;;;;;49.85;27.27;;;;;;;12.29;70.04;95998.38;5031742;28;20025;-79
2022/10/10 05:05:29;;;;;;;57.17;27.35;;;;;;;12.40;70.34;96019.69;5051449;28;20098;-77
2022/10/10 05:07:55;;;;;;;48.53;26.90;;;;;;;11.98;70.47;95956.84;5053907;28;20032;-78
2022/10/10 05:10:20;;;;;;;45.95;26.67;;;;;;;12.16;70.18;95980.28;5013208;28;20589;-78
2022/10/10 05:12:46;;;;;;;46.42;27.05;;;;;;;12.40;70.37;96025.81;5012805;28;20573;-78
2022/10/10 05:15:11;;;;;;;49.20;25.83;;;;;;;12.45;70.35;96023.16;5019859;28;20032;-79
2022/10/10 05:17:37;;;;;;;63.95;26.95;;;;;;;12.33;70.84;96020.75;5026840;28;20127;-79
2022/10/10 05:20:03;;;;;;;54.83;27.92;;;;;;;11.81;71.27;95954.44;5028334;28;20922;-79
2022/10/10 05:22:29;;;;;;;59.75;31.75;;;;;;;12.28;71.15;96031.34;5021249;28;20523;-79
2022/10/10 05:24:54;;;;;;;49.17;30.60;;;;;;;12.49;71.65;96053.50;5032024;28;20028;-79
2022/10/10 05:27:20;;;;;;;53.58;28.85;;;;;;;12.36;71.04;96032.69;5026140;28;21183;-78
2022/10/10 05:29:45;;;;;;;51.08;27.63;;;;;;;12.14;71.29;96022.28;5028577;28;20042;-78
2022/10/10 05:32:10;;;;;;;47.92;26.80;;;;;;;12.28;71.79;96035.91;5042497;28;20037;-78
2022/10/10 05:34:36;;;;;;;57.65;29.25;;;;;;;12.57;71.83;96081.44;5046103;28;20047;-78
2022/10/10 05:37:02;;;;;;;54.72;29.40;;;;;;;12.47;71.55;96049.50;5045053;28;20043;-78
2022/10/10 05:39:27;;;;;;;48.30;26.70;;;;;;;12.46;71.49;96045.22;5045350;28;20035;-78
2022/10/10 05:41:53;;;;;;;46.72;27.67;;;;;;;12.40;71.12;96022.34;5032764;28;20036;-78
2022/10/10 05:44:18;;;;;;;49.05;26.27;;;;;;;12.54;71.49;96050.84;5019948;28;20038;-78
2022/10/10 05:46:44;;;;;;;46.22;27.15;;;;;;;12.63;71.06;96053.78;5045765;28;20029;-79
2022/10/10 05:49:09;;;;;;;59.30;30.10;;;;;;;12.32;71.15;96019.16;5025586;28;20036;-78
2022/10/10 05:51:36;;;;;;;64.28;32.10;;;;;;;12.70;71.21;96068.41;5030588;28;20068;-79
2022/10/10 05:54:01;;;;;;;48.40;29.58;;;;;;;12.72;71.47;96076.16;5022381;28;20181;-78
2022/10/10 05:56:27;;;;;;;43.13;27.88;;;;;;;12.33;71.34;96009.31;5032008;28;20032;-78
2022/10/10 05:58:52;;;;;;;57.00;29.65;;;;;;;12.57;71.07;96041.53;5037371;28;20039;-79
2022/10/10 06:01:17;;;;;;;52.67;29.70;;;;;;;12.80;71.31;96075.63;5023554;28;20036;-78
2022/10/10 06:03:43;;;;;;;60.90;33.90;;;;;;;12.91;70.88;96087.84;5016400;28;21096;-76
2022/10/10 06:06:08;;;;;;;45.55;29.67;;;;;;;13.14;70.74;96098.00;5020668;28;20028;-77
2022/10/10 06:08:34;;;;;;;46.63;29.42;;;;;;;13.03;70.97;96083.09;5036369;28;20028;-78
2022/10/10 06:11:07;;;;;;;46.08;30.38;;;;;;;13.27;70.56;96103.88;5040670;28;20040;-80
2022/10/10 06:13:32;;;;;;;46.80;29.25;;;;;;;13.35;70.29;96106.00;5044059;28;20028;-79
2022/10/10 06:15:58;;;;;;;51.17;30.13;;;;;;;12.69;70.18;96000.28;5045623;28;20040;-79
2022/10/10 06:18:24;;;;;;;56.10;31.60;;;;;;;13.43;69.75;96114.22;5039630;28;20124;-80
2022/10/10 06:20:50;;;;;;;47.63;30.67;;;;;;;13.55;69.59;96115.84;5025682;28;20032;-79
2022/10/10 06:23:16;;;;;;;55.83;31.85;;;;;;;12.87;70.07;96028.25;5047582;28;20421;-79
2022/10/10 06:25:42;;;;;;;53.25;30.20;;;;;;;13.63;69.74;96108.09;5031077;28;20036;-79
2022/10/10 06:28:09;;;;;;;58.78;30.50;;;;;;;13.65;69.60;96113.16;5020535;28;20530;-79
2022/10/10 06:30:42;;;;;;;53.15;30.38;;;;;;;13.55;69.43;96083.84;5047020;28;20874;-82
2022/10/10 06:33:08;;;;;;;46.30;27.02;;;;;;;13.89;68.74;96120.28;5025821;28;20153;-81
2022/10/10 06:35:38;;;;;;;52.97;28.83;;;;;;;13.88;68.41;96092.00;5039451;28;20055;-78
2022/10/10 06:38:04;;;;;;;50.92;28.20;;;;;;;14.11;68.13;96119.94;5029554;28;20029;-79
2022/10/10 06:40:29;;;;;;;60.22;28.75;;;;;;;13.61;67.67;96018.81;5038873;28;20095;-79
2022/10/10 06:42:55;;;;;;;58.28;28.60;;;;;;;13.96;67.83;96074.66;5034757;28;20032;-79
2022/10/10 06:45:20;;;;;;;47.53;27.52;;;;;;;14.34;67.31;96121.22;5021152;28;20159;-80
2022/10/10 06:47:45;;;;;;;50.13;25.88;;;;;;;14.03;66.83;96080.53;5054944;28;20428;-79
2022/10/10 06:50:11;;;;;;;55.03;25.40;;;;;;;14.02;66.94;96062.13;5020880;28;20045;-79
2022/10/10 06:52:36;;;;;;;44.83;24.80;;;;;;;14.21;66.36;96079.88;5020459;28;20288;-78
2022/10/10 06:55:02;;;;;;;44.63;26.02;;;;;;;14.61;66.16;96126.16;5033836;28;20337;-77
2022/10/10 06:57:28;;;;;;;51.08;26.80;;;;;;;14.32;66.28;96061.97;5042175;28;20968;-78
2022/10/10 06:59:53;;;;;;;45.25;25.60;;;;;;;14.58;65.66;96100.81;5020581;28;20756;-79
2022/10/10 07:02:19;;;;;;;46.20;25.10;;;;;;;14.53;65.76;96074.16;5017095;28;20032;-79
2022/10/10 07:04:44;;;;;;;42.25;26.10;;;;;;;14.52;65.76;96061.06;5025339;28;20273;-78
2022/10/10 07:07:09;;;;;;;42.10;24.98;;;;;;;14.73;65.31;96077.75;5023664;28;20612;-79
2022/10/10 07:09:35;;;;;;;39.92;22.83;;;;;;;14.68;65.19;96059.91;5030602;28;20294;-79
2022/10/10 07:12:00;;;;;;;34.70;23.00;;;;;;;14.82;65.04;96068.88;5044803;28;20040;-79
2022/10/10 07:14:26;;;;;;;41.90;22.50;;;;;;;15.27;64.52;96120.34;5035495;28;20048;-79
2022/10/10 07:16:51;;;;;;;38.30;22.35;;;;;;;14.10;64.17;95922.84;5045523;28;20596;-81
2022/10/10 07:19:17;;;;;;;33.53;20.38;;;;;;;15.04;64.25;96079.13;5018544;28;20504;-79
2022/10/10 07:21:43;;;;;;;35.30;22.02;;;;;;;15.41;63.84;96118.63;5025366;28;20061;-79
2022/10/10 07:24:08;;;;;;;36.92;21.00;;;;;;;14.99;62.99;96068.50;5026260;28;20024;-80
2022/10/10 07:26:37;;;;;;;33.25;21.17;;;;;;;14.86;62.94;96034.41;5029640;28;20055;-79
2022/10/10 07:29:04;;;;;;;30.00;19.63;;;;;;;15.04;62.97;96058.56;5029254;28;20033;-79
2022/10/10 07:31:29;;;;;;;35.03;20.30;;;;;;;15.45;62.55;96115.13;5045745;28;20055;-80
2022/10/10 07:33:55;;;;;;;37.20;19.58;;;;;;;15.05;62.56;96043.31;5030017;28;20036;-79
2022/10/10 07:36:20;;;;;;;33.40;20.23;;;;;;;15.13;62.29;96033.91;5033001;28;20370;-79
2022/10/10 07:38:50;;;;;;;32.67;20.08;;;;;;;15.68;62.59;96113.59;5027606;28;20032;-79
2022/10/10 07:41:17;;;;;;;37.67;18.73;;;;;;;15.72;62.05;96089.75;5047763;28;20037;-80
2022/10/10 07:43:42;;;;;;;35.88;18.10;;;;;;;15.63;62.07;96064.75;5024254;28;20097;-79
2022/10/10 07:46:14;;;;;;;32.35;18.52;;;;;;;15.96;62.54;96109.28;5021596;28;20047;-80
2022/10/10 07:48:41;;;;;;;30.35;18.25;;;;;;;15.65;61.99;96049.19;5038744;28;20045;-79
2022/10/10 07:51:06;;;;;;;34.08;19.52;;;;;;;16.09;61.83;96102.47;5034648;28;20424;-80
2022/10/10 07:53:32;;;;;;;30.60;17.80;;;;;;;16.08;61.76;96100.88;5034101;28;20033;-81
2022/10/10 07:55:57;;;;;;;27.20;16.63;;;;;;;15.52;61.53;96012.41;5031625;28;20281;-79
2022/10/10 07:58:23;;;;;;;29.02;16.55;;;;;;;16.13;61.46;96106.97;5017797;28;20428;-78
2022/10/10 08:00:48;;;;;;;20.58;13.93;;;;;;;16.00;61.27;96058.69;5008538;28;20427;-79
2022/10/10 08:03:13;;;;;;;29.70;15.05;;;;;;;16.05;61.18;96058.63;5042618;28;20028;-80
2022/10/10 08:05:41;;;;;;;28.77;13.30;;;;;;;16.41;61.33;96107.16;5025950;28;20874;-78
2022/10/10 08:08:08;;;;;;;19.70;12.70;;;;;;;16.15;62.14;96050.50;5053494;28;20034;-78
2022/10/10 08:10:33;;;;;;;23.13;12.50;;;;;;;16.15;61.80;96043.25;5030025;28;20473;-79
2022/10/10 08:12:59;;;;;;;22.35;12.77;;;;;;;16.46;61.48;96074.97;5047977;28;20109;-78
2022/10/10 08:15:24;;;;;;;20.77;12.30;;;;;;;16.54;61.32;96077.00;5043576;28;20094;-78
2022/10/10 08:17:51;;;;;;;28.08;13.80;;;;;;;16.26;60.83;96011.00;5042475;28;20028;-79
2022/10/10 08:20:17;;;;;;;22.27;12.52;;;;;;;16.90;61.01;96096.88;5027349;28;20043;-80
2022/10/10 08:22:42;;;;;;;35.80;13.05;;;;;;;16.79;61.33;96076.66;5056825;28;21420;-78
2022/10/10 08:25:08;;;;;;;19.77;12.63;;;;;;;16.86;60.95;96079.75;5048075;28;20033;-79
2022/10/10 08:27:33;;;;;;;21.30;12.85;;;;;;;16.58;60.98;96019.91;5043703;28;20033;-77
2022/10/10 08:29:59;;;;;;;34.03;12.60;;;;;;;17.20;60.71;96098.28;5048415;28;20040;-78
2022/10/10 08:32:24;;;;;;;22.23;11.90;;;;;;;16.94;60.56;96033.56;5048781;28;20115;-79
2022/10/10 08:34:49;;;;;;;32.72;14.35;;;;;;;17.21;61.15;96064.22;5054888;28;20094;-78
2022/10/10 08:37:15;;;;;;;29.70;12.35;;;;;;;17.11;60.10;96045.63;5040725;28;20033;-78
2022/10/10 08:39:40;;;;;;;30.75;12.73;;;;;;;17.19;60.02;96043.06;5056750;28;20028;-78
2022/10/10 08:42:10;;;;;;;24.55;12.23;;;;;;;17.16;59.74;96018.75;5030282;28;20067;-78
2022/10/10 08:44:44;;;;;;;18.13;11.88;;;;;;;17.66;59.60;96094.84;5038746;28;20079;-79
2022/10/10 08:47:09;;;;;;;28.73;11.45;;;;;;;17.21;59.15;96029.38;5017632;28;20456;-79
2022/10/10 08:49:41;;;;;;;22.13;10.75;;;;;;;17.66;59.43;96098.31;5019022;28;20479;-78
2022/10/10 08:52:30;;;;;;;22.67;10.93;;;;;;;17.64;58.28;96070.19;5042589;28;20055;-78
2022/10/10 08:54:57;;;;;;;17.17;9.80;;;;;;;17.54;58.05;96033.63;5022686;28;20037;-79
2022/10/10 08:57:32;;;;;;;20.92;10.60;;;;;;;17.96;58.04;96094.28;5025528;28;20155;-83
2022/10/10 09:00:06;;;;;;;21.13;11.43;;;;;;;17.85;57.72;96074.09;5043689;28;20032;-79
2022/10/10 09:02:40;;;;;;;19.90;10.75;;;;;;;18.16;57.96;96097.69;5028643;28;20066;-79
2022/10/10 09:05:14;;;;;;;24.85;11.23;;;;;;;18.31;57.37;96103.50;5022438;28;20058;-80
2022/10/10 09:08:32;;;;;;;18.98;10.30;;;;;;;18.29;57.08;96097.66;5046520;28;20096;-79
2022/10/10 09:11:08;;;;;;;18.15;9.93;;;;;;;18.16;56.34;96071.59;4969306;28;21009;-81
2022/10/10 09:14:19;;;;;;;21.70;10.18;;;;;;;18.44;56.85;96101.91;5028402;28;20052;-80
2022/10/10 09:17:15;;;;;;;26.30;8.90;;;;;;;18.48;54.96;96097.53;5018395;28;20457;-79
2022/10/10 09:20:02;;;;;;;12.05;8.68;;;;;;;18.53;55.56;96100.13;5023102;28;20054;-81
2022/10/10 09:22:40;;;;;;;23.52;9.70;;;;;;;18.69;55.38;96104.06;5050146;28;20543;-79
2022/10/10 09:25:15;;;;;;;13.95;8.80;;;;;;;18.72;55.06;96106.16;5027378;28;21592;-78
2022/10/10 09:27:46;;;;;;;18.23;9.52;;;;;;;18.77;54.88;96099.88;5056869;28;20483;-79
2022/10/10 09:30:19;;;;;;;18.38;7.80;;;;;;;18.91;54.35;96108.72;5042898;28;20076;-79
2022/10/10 09:33:13;;;;;;;17.40;8.57;;;;;;;18.97;53.26;96106.72;5036229;28;20081;-81
2022/10/10 09:35:41;;;;;;;20.48;7.85;;;;;;;18.54;52.80;96018.41;5005433;28;20548;-77
2022/10/10 09:38:09;;;;;;;23.55;8.10;;;;;;;19.17;52.49;96101.63;5021786;28;20567;-77
2022/10/10 09:40:47;;;;;;;18.35;7.93;;;;;;;19.21;52.25;96086.50;5035301;28;20036;-80
2022/10/10 09:43:20;;;;;;;17.17;8.20;;;;;;;19.19;52.51;96079.84;5040524;28;20490;-80
2022/10/10 09:45:51;;;;;;;12.57;7.90;;;;;;;18.68;51.83;95997.72;5021102;28;20172;-79
2022/10/10 09:48:17;;;;;;;18.70;7.22;;;;;;;19.39;51.42;96108.91;5034282;28;20040;-78
2022/10/10 09:50:43;;;;;;;16.58;7.90;;;;;;;18.95;51.67;96053.25;5042070;28;20053;-79
2022/10/10 09:53:14;;;;;;;13.70;7.72;;;;;;;19.21;52.01;96080.31;5024770;28;20036;-79
2022/10/10 09:55:41;;;;;;;16.25;7.55;;;;;;;19.37;51.65;96102.28;5039534;28;20044;-78
2022/10/10 09:58:22;;;;;;;15.77;7.50;;;;;;;19.03;51.61;96054.41;5054135;28;20067;-79
2022/10/10 10:00:48;;;;;;;13.50;8.30;;;;;;;18.87;51.33;96013.66;5027400;28;20054;-79
2022/10/10 10:03:17;;;;;;;16.05;8.32;;;;;;;19.01;51.76;96027.03;5050313;28;20455;-79
2022/10/10 10:05:51;;;;;;;16.45;7.35;;;;;;;19.49;50.94;96097.94;5024291;28;20031;-78
2022/10/10 10:08:23;;;;;;;16.27;7.32;;;;;;;19.34;50.13;96074.09;5026171;28;20713;-78
2022/10/10 10:10:49;;;;;;;13.40;7.60;;;;;;;19.10;50.80;96030.56;5028682;28;20104;-77
2022/10/10 10:13:20;;;;;;;16.38;7.93;;;;;;;19.60;50.96;96091.22;5019068;28;20134;-80
2022/10/10 10:15:50;;;;;;;14.18;7.78;;;;;;;19.58;51.47;96090.72;5027583;28;20394;-79
2022/10/10 10:18:15;;;;;;;13.27;6.90;;;;;;;19.52;51.50;96085.78;5016270;28;20055;-79
2022/10/10 10:20:47;;;;;;;14.57;6.97;;;;;;;19.32;51.40;96043.19;5020944;28;20331;-80
2022/10/10 10:23:34;;;;;;;12.60;7.95;;;;;;;19.07;51.91;95996.25;5015993;28;20139;-80
2022/10/10 10:26:02;;;;;;;13.13;6.90;;;;;;;19.71;50.47;96080.97;5012594;28;20458;-77
2022/10/10 10:28:29;;;;;;;15.32;7.85;;;;;;;19.65;51.50;96076.81;5020394;28;20172;-78
2022/10/10 10:30:57;;;;;;;10.07;6.70;;;;;;;19.70;50.90;96060.53;5016814;28;20029;-79
2022/10/10 10:33:41;;;;;;;13.43;6.78;;;;;;;19.75;51.21;96081.16;5020559;28;20612;-78
2022/10/10 10:36:25;;;;;;;16.02;7.18;;;;;;;19.91;50.38;96083.09;5024753;28;20032;-77
2022/10/10 10:39:14;;;;;;;18.13;7.50;;;;;;;19.98;50.27;96083.47;5019284;28;20043;-77
2022/10/10 10:41:45;;;;;;;10.40;6.25;;;;;;;19.70;49.68;96008.59;5043582;28;20589;-77
2022/10/10 10:44:28;;;;;;;9.15;6.53;;;;;;;20.02;50.46;96051.31;5015946;28;20471;-77
2022/10/10 10:47:12;;;;;;;13.75;7.05;;;;;;;20.24;50.45;96064.69;5018497;28;20041;-77
2022/10/10 10:49:50;;;;;;;11.80;7.28;;;;;;;20.26;50.61;96064.38;5020766;28;20056;-77
2022/10/10 10:52:47;;;;;;;18.15;7.13;;;;;;;19.99;50.02;96054.63;5018096;28;20048;-77
2022/10/10 10:55:18;;;;;;;13.82;6.32;;;;;;;20.06;49.71;96067.66;5031920;28;20036;-79
2022/10/10 10:57:50;;;;;;;9.07;6.47;;;;;;;20.14;49.88;96075.75;5022481;28;20051;-77
2022/10/10 11:00:17;;;;;;;;;;;;;;;20.13;49.81;96068.00;5042040;28;20072;-79
2022/10/10 11:03:17;;;;;;;13.35;8.00;;;;;;;20.14;49.37;96069.59;5020350;28;19978;-77
2022/10/10 11:05:47;;;;;;;18.52;8.55;;;;;;;19.89;49.69;96026.09;5024186;28;20353;-76
2022/10/10 11:08:39;;;;;;;21.10;8.50;;;;;;;20.06;49.42;96044.22;5018749;28;20043;-78
2022/10/10 11:11:13;;;;;;;;;;;;;;;19.90;48.19;96035.78;5021112;28;20456;-77
2022/10/10 11:14:01;;;;;;;11.38;6.57;;;;;;;20.00;48.74;96029.28;5036108;28;20595;-77
2022/10/10 11:16:39;;;;;;;16.27;7.95;;;;;;;20.02;48.46;96030.56;5019834;28;20028;-77
2022/10/10 11:19:22;;;;;;;20.40;8.07;;;;;;;19.99;48.73;96033.09;5009918;28;20036;-77
2022/10/10 11:22:10;;;;;;;17.00;7.80;;;;;;;19.64;49.52;95992.59;5003057;28;20037;-78
2022/10/10 11:25:00;;;;;;;15.95;6.78;;;;;;;19.86;48.74;96045.56;5017342;28;20134;-77
2022/10/10 11:28:06;;;;;;;21.42;6.80;;;;;;;19.81;49.08;96034.94;5033091;28;20388;-78
2022/10/10 11:30:35;;;;;;;14.57;8.15;;;;;;;19.79;49.60;96037.16;5024553;28;20040;-77
2022/10/10 11:33:19;;;;;;;10.38;6.57;;;;;;;19.59;49.46;96033.13;5027079;28;20043;-77